Terminal Aerodrome Forecast
Issued by NWS St Louis, MO

Home | Current Version | Previous Version | Text Only | Print | Product List | Glossary On
Versions: 1 2 3 4 5 6 7 8 9 10 11 12 13 14 15
000
FTUS43 KLSX 242300
TAFSTL
TAF
KSTL 242320Z 2500/2606 29012KT P6SM -RA OVC015
     FM250600 25006KT P6SM OVC015
     FM251400 19010KT P6SM SCT250=

USA.gov is the U.S. government's official web portal to all federal, state and local government web resources and services.